sensor_id;sensor_type;location;lat;lon;timestamp;pressure;altitude;pressure_sealevel;temperature;humidity
75166;BME280;63747;48.042;10.088;2024-02-21T00:02:40;96171.03;;;2.27;67.25
75166;BME280;63747;48.042;10.088;2024-02-21T00:05:41;96170.94;;;2.28;67.29
75166;BME280;63747;48.042;10.088;2024-02-21T00:08:41;96163.75;;;2.32;67.39
75166;BME280;63747;48.042;10.088;2024-02-21T00:11:42;96157.97;;;2.27;67.38
75166;BME280;63747;48.042;10.088;2024-02-21T00:14:43;96160.59;;;2.27;67.55
75166;BME280;63747;48.042;10.088;2024-02-21T00:17:44;96161.41;;;2.27;67.50
75166;BME280;63747;48.042;10.088;2024-02-21T00:20:45;96158.69;;;2.29;67.54
75166;BME280;63747;48.042;10.088;2024-02-21T00:23:45;96161.22;;;2.30;67.63
75166;BME280;63747;48.042;10.088;2024-02-21T00:26:46;96161.41;;;2.27;67.67
75166;BME280;63747;48.042;10.088;2024-02-21T00:29:47;96160.47;;;2.28;67.86
75166;BME280;63747;48.042;10.088;2024-02-21T00:32:48;96151.78;;;2.28;67.73
75166;BME280;63747;48.042;10.088;2024-02-21T00:35:48;96153.69;;;2.26;67.84
75166;BME280;63747;48.042;10.088;2024-02-21T00:38:49;96150.63;;;2.19;67.72
75166;BME280;63747;48.042;10.088;2024-02-21T00:41:50;96142.94;;;2.16;68.07
75166;BME280;63747;48.042;10.088;2024-02-21T00:44:50;96149.50;;;2.09;67.96
75166;BME280;63747;48.042;10.088;2024-02-21T00:47:51;96152.97;;;2.09;68.18
75166;BME280;63747;48.042;10.088;2024-02-21T00:50:52;96140.44;;;2.14;68.08
75166;BME280;63747;48.042;10.088;2024-02-21T00:53:53;96149.69;;;2.20;68.06
75166;BME280;63747;48.042;10.088;2024-02-21T00:56:53;96142.38;;;2.25;68.06
75166;BME280;63747;48.042;10.088;2024-02-21T00:59:54;96135.47;;;2.24;68.00
75166;BME280;63747;48.042;10.088;2024-02-21T01:02:54;96139.75;;;2.25;68.24
75166;BME280;63747;48.042;10.088;2024-02-21T01:05:55;96141.53;;;2.25;68.24
75166;BME280;63747;48.042;10.088;2024-02-21T01:08:56;96133.47;;;2.28;68.39
75166;BME280;63747;48.042;10.088;2024-02-21T01:11:56;96135.88;;;2.31;68.38
75166;BME280;63747;48.042;10.088;2024-02-21T01:14:57;96135.81;;;2.32;68.54
75166;BME280;63747;48.042;10.088;2024-02-21T01:17:58;96126.28;;;2.31;68.41
75166;BME280;63747;48.042;10.088;2024-02-21T01:20:59;96112.03;;;2.35;68.42
75166;BME280;63747;48.042;10.088;2024-02-21T01:23:59;96112.03;;;2.35;68.42
75166;BME280;63747;48.042;10.088;2024-02-21T01:27:00;96108.47;;;2.36;68.32
75166;BME280;63747;48.042;10.088;2024-02-21T01:30:00;96109.97;;;2.40;68.36
75166;BME280;63747;48.042;10.088;2024-02-21T01:33:01;96103.59;;;2.45;68.32
75166;BME280;63747;48.042;10.088;2024-02-21T01:36:02;96103.38;;;2.48;68.10
75166;BME280;63747;48.042;10.088;2024-02-21T01:39:03;96095.00;;;2.42;68.29
75166;BME280;63747;48.042;10.088;2024-02-21T01:42:04;96089.03;;;2.40;68.29
75166;BME280;63747;48.042;10.088;2024-02-21T01:45:05;96082.97;;;2.40;68.42
75166;BME280;63747;48.042;10.088;2024-02-21T01:48:06;96081.47;;;2.36;68.51
75166;BME280;63747;48.042;10.088;2024-02-21T01:51:07;96078.03;;;2.35;68.42
75166;BME280;63747;48.042;10.088;2024-02-21T01:54:08;96075.41;;;2.35;68.72
75166;BME280;63747;48.042;10.088;2024-02-21T01:57:09;96067.69;;;2.34;68.55
75166;BME280;63747;48.042;10.088;2024-02-21T02:00:12;96072.81;;;2.35;68.43
75166;BME280;63747;48.042;10.088;2024-02-21T02:03:14;96065.16;;;2.32;68.63
75166;BME280;63747;48.042;10.088;2024-02-21T02:06:18;96066.13;;;2.31;68.77
75166;BME280;63747;48.042;10.088;2024-02-21T02:09:18;96067.88;;;2.31;68.68
75166;BME280;63747;48.042;10.088;2024-02-21T02:12:19;96064.94;;;2.35;68.77
75166;BME280;63747;48.042;10.088;2024-02-21T02:15:21;96060.56;;;2.36;68.65
75166;BME280;63747;48.042;10.088;2024-02-21T02:18:21;96045.63;;;2.38;68.59
75166;BME280;63747;48.042;10.088;2024-02-21T02:21:40;96039.22;;;2.42;68.43
75166;BME280;63747;48.042;10.088;2024-02-21T02:24:43;96029.91;;;2.38;68.50
75166;BME280;63747;48.042;10.088;2024-02-21T02:27:44;96032.53;;;2.38;68.52
75166;BME280;63747;48.042;10.088;2024-02-21T02:30:45;96033.16;;;2.41;68.39
75166;BME280;63747;48.042;10.088;2024-02-21T02:33:46;96024.56;;;2.39;68.27
75166;BME280;63747;48.042;10.088;2024-02-21T02:36:48;96014.84;;;2.41;68.48
75166;BME280;63747;48.042;10.088;2024-02-21T02:39:49;96014.28;;;2.36;68.28
75166;BME280;63747;48.042;10.088;2024-02-21T02:42:50;96015.13;;;2.37;68.31
75166;BME280;63747;48.042;10.088;2024-02-21T02:45:51;96009.28;;;2.33;68.40
75166;BME280;63747;48.042;10.088;2024-02-21T02:48:52;96013.47;;;2.36;68.34
75166;BME280;63747;48.042;10.088;2024-02-21T02:51:52;96013.47;;;2.36;68.26
75166;BME280;63747;48.042;10.088;2024-02-21T02:54:53;96006.66;;;2.33;68.23
75166;BME280;63747;48.042;10.088;2024-02-21T02:57:55;95999.78;;;2.32;68.29
75166;BME280;63747;48.042;10.088;2024-02-21T03:00:57;96004.06;;;2.33;68.42
75166;BME280;63747;48.042;10.088;2024-02-21T03:03:57;96001.22;;;2.36;68.41
75166;BME280;63747;48.042;10.088;2024-02-21T03:06:58;96004.47;;;2.40;68.34
75166;BME280;63747;48.042;10.088;2024-02-21T03:09:59;95998.19;;;2.42;68.47
75166;BME280;63747;48.042;10.088;2024-02-21T03:12:59;95997.34;;;2.42;68.17
75166;BME280;63747;48.042;10.088;2024-02-21T03:16:00;96003.63;;;2.39;68.27
75166;BME280;63747;48.042;10.088;2024-02-21T03:19:01;96000.28;;;2.37;68.34
75166;BME280;63747;48.042;10.088;2024-02-21T03:22:02;95995.03;;;2.37;68.25
75166;BME280;63747;48.042;10.088;2024-02-21T03:25:03;95991.81;;;2.34;68.41
75166;BME280;63747;48.042;10.088;2024-02-21T03:28:04;95990.03;;;2.34;68.21
75166;BME280;63747;48.042;10.088;2024-02-21T03:31:04;95988.34;;;2.33;68.25
75166;BME280;63747;48.042;10.088;2024-02-21T03:34:05;95984.78;;;2.34;68.30
75166;BME280;63747;48.042;10.088;2024-02-21T03:37:06;95996.75;;;2.38;68.12
75166;BME280;63747;48.042;10.088;2024-02-21T03:40:08;95978.84;;;2.32;68.02
75166;BME280;63747;48.042;10.088;2024-02-21T03:43:09;95985.31;;;2.39;68.07
75166;BME280;63747;48.042;10.088;2024-02-21T03:46:10;95987.09;;;2.39;67.86
75166;BME280;63747;48.042;10.088;2024-02-21T03:49:10;95981.03;;;2.38;67.88
75166;BME280;63747;48.042;10.088;2024-02-21T03:52:11;95976.72;;;2.37;67.88
75166;BME280;63747;48.042;10.088;2024-02-21T03:55:12;95980.81;;;2.41;67.81
75166;BME280;63747;48.042;10.088;2024-02-21T03:58:13;95966.69;;;2.44;67.77
75166;BME280;63747;48.042;10.088;2024-02-21T04:01:15;95966.69;;;2.44;67.45
75166;BME280;63747;48.042;10.088;2024-02-21T04:04:16;95957.16;;;2.43;67.50
75166;BME280;63747;48.042;10.088;2024-02-21T04:07:17;95954.66;;;2.41;67.62
75166;BME280;63747;48.042;10.088;2024-02-21T04:10:18;95959.59;;;2.46;67.39
75166;BME280;63747;48.042;10.088;2024-02-21T04:13:18;95962.19;;;2.46;67.13
75166;BME280;63747;48.042;10.088;2024-02-21T04:16:19;95950.06;;;2.45;67.00
75166;BME280;63747;48.042;10.088;2024-02-21T04:19:20;95954.66;;;2.41;67.11
75166;BME280;63747;48.042;10.088;2024-02-21T04:22:21;95948.34;;;2.44;67.11
75166;BME280;63747;48.042;10.088;2024-02-21T04:25:21;95943.34;;;2.41;66.88
75166;BME280;63747;48.042;10.088;2024-02-21T04:28:22;95927.97;;;2.36;67.08
75166;BME280;63747;48.042;10.088;2024-02-21T04:31:23;95929.13;;;2.32;67.05
75166;BME280;63747;48.042;10.088;2024-02-21T04:34:23;95922.66;;;2.25;67.29
75166;BME280;63747;48.042;10.088;2024-02-21T04:37:24;95913.84;;;2.26;67.13
75166;BME280;63747;48.042;10.088;2024-02-21T04:40:25;95906.00;;;2.26;67.08
75166;BME280;63747;48.042;10.088;2024-02-21T04:43:25;95902.13;;;2.19;67.27
75166;BME280;63747;48.042;10.088;2024-02-21T04:46:26;95903.28;;;2.15;67.32
75166;BME280;63747;48.042;10.088;2024-02-21T04:49:27;95891.44;;;2.09;67.59
75166;BME280;63747;48.042;10.088;2024-02-21T04:52:27;95892.50;;;2.07;67.55
75166;BME280;63747;48.042;10.088;2024-02-21T04:55:28;95888.63;;;2.00;67.77
75166;BME280;63747;48.042;10.088;2024-02-21T04:58:29;95875.16;;;1.93;67.93
75166;BME280;63747;48.042;10.088;2024-02-21T05:01:29;95879.13;;;1.86;68.10
75166;BME280;63747;48.042;10.088;2024-02-21T05:04:31;95874.06;;;1.83;68.22
75166;BME280;63747;48.042;10.088;2024-02-21T05:07:31;95882.75;;;1.83;68.41
75166;BME280;63747;48.042;10.088;2024-02-21T05:10:32;95882.75;;;1.83;68.34
75166;BME280;63747;48.042;10.088;2024-02-21T05:13:33;95882.34;;;1.89;68.55
75166;BME280;63747;48.042;10.088;2024-02-21T05:16:33;95878.59;;;1.94;68.31
75166;BME280;63747;48.042;10.088;2024-02-21T05:19:34;95869.09;;;1.93;68.42
75166;BME280;63747;48.042;10.088;2024-02-21T05:22:35;95860.28;;;1.94;68.50
75166;BME280;63747;48.042;10.088;2024-02-21T05:25:35;95856.84;;;1.93;68.56
75166;BME280;63747;48.042;10.088;2024-02-21T05:28:36;95841.56;;;1.87;68.34
75166;BME280;63747;48.042;10.088;2024-02-21T05:32:03;95827.88;;;1.83;68.51
75166;BME280;63747;48.042;10.088;2024-02-21T05:35:04;95814.91;;;1.69;68.54
75166;BME280;63747;48.042;10.088;2024-02-21T05:38:05;95807.09;;;1.56;68.89
75166;BME280;63747;48.042;10.088;2024-02-21T05:41:11;95809.59;;;1.58;68.73
75166;BME280;63747;48.042;10.088;2024-02-21T05:44:12;95808.22;;;1.52;68.74
75166;BME280;63747;48.042;10.088;2024-02-21T05:47:12;95809.06;;;1.53;68.68
75166;BME280;63747;48.042;10.088;2024-02-21T05:50:15;95808.94;;;1.54;68.65
75166;BME280;63747;48.042;10.088;2024-02-21T05:53:16;95798.81;;;1.50;68.66
75166;BME280;63747;48.042;10.088;2024-02-21T05:56:16;95800.69;;;1.48;68.64
75166;BME280;63747;48.042;10.088;2024-02-21T05:59:18;95801.44;;;1.50;68.54
75166;BME280;63747;48.042;10.088;2024-02-21T06:02:18;95801.50;;;1.48;68.41
75166;BME280;63747;48.042;10.088;2024-02-21T06:05:20;95795.56;;;1.46;68.34
75166;BME280;63747;48.042;10.088;2024-02-21T06:08:20;95800.06;;;1.44;68.56
75166;BME280;63747;48.042;10.088;2024-02-21T06:11:21;95794.91;;;1.43;68.37
75166;BME280;63747;48.042;10.088;2024-02-21T06:14:22;95801.72;;;1.45;68.28
75166;BME280;63747;48.042;10.088;2024-02-21T06:17:22;95801.19;;;1.40;68.24
75166;BME280;63747;48.042;10.088;2024-02-21T06:20:23;95802.66;;;1.31;68.42
75166;BME280;63747;48.042;10.088;2024-02-21T06:23:24;95810.38;;;1.33;68.19
75166;BME280;63747;48.042;10.088;2024-02-21T06:26:25;95804.53;;;1.29;68.31
75166;BME280;63747;48.042;10.088;2024-02-21T06:29:25;95814.88;;;1.31;68.47
75166;BME280;63747;48.042;10.088;2024-02-21T06:32:26;95813.00;;;1.33;68.52
75166;BME280;63747;48.042;10.088;2024-02-21T06:35:27;95802.97;;;1.40;68.48
75166;BME280;63747;48.042;10.088;2024-02-21T06:38:28;95804.66;;;1.41;68.17
75166;BME280;63747;48.042;10.088;2024-02-21T06:41:28;95792.53;;;1.40;68.26
75166;BME280;63747;48.042;10.088;2024-02-21T06:44:30;95792.63;;;1.38;68.27
75166;BME280;63747;48.042;10.088;2024-02-21T06:47:32;95781.25;;;1.39;68.42
75166;BME280;63747;48.042;10.088;2024-02-21T06:50:32;95782.72;;;1.43;68.42
75166;BME280;63747;48.042;10.088;2024-02-21T06:53:33;95776.44;;;1.46;68.26
75166;BME280;63747;48.042;10.088;2024-02-21T06:56:34;95796.63;;;1.56;68.29
75166;BME280;63747;48.042;10.088;2024-02-21T06:59:35;95793.28;;;1.67;68.10
75166;BME280;63747;48.042;10.088;2024-02-21T07:02:36;95797.38;;;1.71;68.09
75166;BME280;63747;48.042;10.088;2024-02-21T07:05:36;95796.94;;;1.77;67.98
75166;BME280;63747;48.042;10.088;2024-02-21T07:08:37;95794.53;;;1.87;68.04
75166;BME280;63747;48.042;10.088;2024-02-21T07:11:38;95788.34;;;2.01;67.97
75166;BME280;63747;48.042;10.088;2024-02-21T07:14:39;95782.38;;;2.11;67.75
75166;BME280;63747;48.042;10.088;2024-02-21T07:17:40;95786.72;;;2.24;67.46
75166;BME280;63747;48.042;10.088;2024-02-21T07:20:40;95778.63;;;2.39;67.33
75166;BME280;63747;48.042;10.088;2024-02-21T07:23:41;95780.25;;;2.53;67.05
75166;BME280;63747;48.042;10.088;2024-02-21T07:26:45;95779.97;;;2.69;67.05
75166;BME280;63747;48.042;10.088;2024-02-21T07:29:45;95786.50;;;2.87;66.85
75166;BME280;63747;48.042;10.088;2024-02-21T07:32:49;95782.94;;;3.12;66.46
75166;BME280;63747;48.042;10.088;2024-02-21T07:35:51;95765.22;;;3.27;66.02
75166;BME280;63747;48.042;10.088;2024-02-21T07:38:51;95765.25;;;3.38;65.70
75166;BME280;63747;48.042;10.088;2024-02-21T07:41:52;95773.78;;;3.53;65.43
75166;BME280;63747;48.042;10.088;2024-02-21T07:44:53;95769.53;;;3.74;65.10
75166;BME280;63747;48.042;10.088;2024-02-21T07:47:54;95768.47;;;3.88;64.81
75166;BME280;63747;48.042;10.088;2024-02-21T07:50:54;95774.88;;;4.06;64.58
75166;BME280;63747;48.042;10.088;2024-02-21T07:53:55;95769.63;;;4.18;64.50
75166;BME280;63747;48.042;10.088;2024-02-21T07:56:56;95756.25;;;4.32;63.78
75166;BME280;63747;48.042;10.088;2024-02-21T07:59:56;95753.84;;;4.51;63.18
75166;BME280;63747;48.042;10.088;2024-02-21T08:02:57;95749.50;;;4.73;61.86
75166;BME280;63747;48.042;10.088;2024-02-21T08:05:58;95755.25;;;4.99;61.01
75166;BME280;63747;48.042;10.088;2024-02-21T08:08:58;95746.00;;;5.15;60.02
75166;BME280;63747;48.042;10.088;2024-02-21T08:12:00;95747.34;;;5.31;59.01
75166;BME280;63747;48.042;10.088;2024-02-21T08:15:02;95736.31;;;5.37;58.54
75166;BME280;63747;48.042;10.088;2024-02-21T08:18:07;95737.91;;;5.49;58.11
75166;BME280;63747;48.042;10.088;2024-02-21T08:21:08;95742.19;;;5.71;57.30
75166;BME280;63747;48.042;10.088;2024-02-21T08:24:08;95737.47;;;5.86;56.34
75166;BME280;63747;48.042;10.088;2024-02-21T08:27:10;95737.09;;;6.00;55.41
75166;BME280;63747;48.042;10.088;2024-02-21T08:30:11;95736.28;;;6.09;55.37
75166;BME280;63747;48.042;10.088;2024-02-21T08:33:12;95742.06;;;6.24;54.30
75166;BME280;63747;48.042;10.088;2024-02-21T08:36:19;95718.47;;;6.22;53.75
75166;BME280;63747;48.042;10.088;2024-02-21T08:39:20;95713.66;;;6.37;53.45
75166;BME280;63747;48.042;10.088;2024-02-21T08:42:21;95697.03;;;6.37;53.43
75166;BME280;63747;48.042;10.088;2024-02-21T08:45:22;95702.19;;;6.48;53.81
75166;BME280;63747;48.042;10.088;2024-02-21T08:48:22;95709.00;;;6.70;53.57
75166;BME280;63747;48.042;10.088;2024-02-21T08:51:25;95707.91;;;6.82;52.71
75166;BME280;63747;48.042;10.088;2024-02-21T08:54:26;95713.03;;;6.84;52.72
75166;BME280;63747;48.042;10.088;2024-02-21T08:57:27;95713.19;;;6.92;52.83
75166;BME280;63747;48.042;10.088;2024-02-21T09:00:28;95715.28;;;7.07;52.70
75166;BME280;63747;48.042;10.088;2024-02-21T09:03:31;95709.00;;;7.18;52.10
75166;BME280;63747;48.042;10.088;2024-02-21T09:06:32;95704.97;;;7.33;51.99
75166;BME280;63747;48.042;10.088;2024-02-21T09:09:36;95714.13;;;7.49;51.65
75166;BME280;63747;48.042;10.088;2024-02-21T09:12:38;95708.22;;;7.65;51.12
75166;BME280;63747;48.042;10.088;2024-02-21T09:15:39;95692.97;;;7.68;50.97
75166;BME280;63747;48.042;10.088;2024-02-21T09:18:40;95694.34;;;7.82;50.71
75166;BME280;63747;48.042;10.088;2024-02-21T09:21:40;95687.25;;;7.82;50.77
75166;BME280;63747;48.042;10.088;2024-02-21T09:24:41;95700.19;;;7.76;50.67
75166;BME280;63747;48.042;10.088;2024-02-21T09:27:44;95693.09;;;7.76;50.86
75166;BME280;63747;48.042;10.088;2024-02-21T09:30:45;95685.94;;;7.96;51.50
75166;BME280;63747;48.042;10.088;2024-02-21T09:33:45;95679.91;;;8.13;50.94
75166;BME280;63747;48.042;10.088;2024-02-21T09:36:46;95678.19;;;8.22;50.92
75166;BME280;63747;48.042;10.088;2024-02-21T09:39:47;95672.31;;;8.28;50.13
75166;BME280;63747;48.042;10.088;2024-02-21T09:42:48;95663.09;;;8.32;50.82
75166;BME280;63747;48.042;10.088;2024-02-21T09:45:50;95663.19;;;8.40;51.08
75166;BME280;63747;48.042;10.088;2024-02-21T09:49:04;95662.81;;;8.53;50.28
75166;BME280;63747;48.042;10.088;2024-02-21T09:52:10;95660.88;;;8.55;50.33
75166;BME280;63747;48.042;10.088;2024-02-21T09:55:14;95661.63;;;8.65;51.09
75166;BME280;63747;48.042;10.088;2024-02-21T09:58:15;95660.88;;;8.73;50.64
75166;BME280;63747;48.042;10.088;2024-02-21T10:01:16;95653.56;;;8.85;50.67
75166;BME280;63747;48.042;10.088;2024-02-21T10:04:17;95650.16;;;8.92;50.62
75166;BME280;63747;48.042;10.088;2024-02-21T10:07:18;95653.22;;;9.06;50.88
75166;BME280;63747;48.042;10.088;2024-02-21T10:10:23;95656.03;;;9.04;50.31
75166;BME280;63747;48.042;10.088;2024-02-21T10:13:25;95651.91;;;9.02;49.79
75166;BME280;63747;48.042;10.088;2024-02-21T10:16:26;95650.44;;;9.07;49.81
75166;BME280;63747;48.042;10.088;2024-02-21T10:19:27;95642.47;;;9.25;50.33
75166;BME280;63747;48.042;10.088;2024-02-21T10:22:28;95630.69;;;9.37;50.10
75166;BME280;63747;48.042;10.088;2024-02-21T10:25:31;95632.41;;;9.46;49.68
75166;BME280;63747;48.042;10.088;2024-02-21T10:28:32;95624.50;;;9.55;49.79
75166;BME280;63747;48.042;10.088;2024-02-21T10:31:33;95624.66;;;9.79;48.90
75166;BME280;63747;48.042;10.088;2024-02-21T10:34:34;95622.56;;;9.91;49.09
75166;BME280;63747;48.042;10.088;2024-02-21T10:37:34;95619.28;;;10.05;48.64
75166;BME280;63747;48.042;10.088;2024-02-21T10:40:35;95614.69;;;10.23;48.66
75166;BME280;63747;48.042;10.088;2024-02-21T10:43:40;95602.50;;;10.30;47.37
75166;BME280;63747;48.042;10.088;2024-02-21T10:46:42;95596.50;;;10.28;48.16
75166;BME280;63747;48.042;10.088;2024-02-21T10:49:44;95585.13;;;10.44;47.37
75166;BME280;63747;48.042;10.088;2024-02-21T10:53:08;95579.84;;;10.52;47.55
75166;BME280;63747;48.042;10.088;2024-02-21T10:56:16;95582.53;;;10.77;47.03
75166;BME280;63747;48.042;10.088;2024-02-21T10:59:23;95585.69;;;10.88;46.80
75166;BME280;63747;48.042;10.088;2024-02-21T11:02:24;95569.28;;;10.85;46.38
75166;BME280;63747;48.042;10.088;2024-02-21T11:05:26;95556.84;;;10.94;45.86
75166;BME280;63747;48.042;10.088;2024-02-21T11:08:28;95555.50;;;10.89;45.75
75166;BME280;63747;48.042;10.088;2024-02-21T11:11:30;95544.06;;;10.89;45.85
75166;BME280;63747;48.042;10.088;2024-02-21T11:14:33;95543.69;;;11.16;45.29
75166;BME280;63747;48.042;10.088;2024-02-21T11:17:39;95541.34;;;11.30;44.80
75166;BME280;63747;48.042;10.088;2024-02-21T11:20:40;95542.38;;;11.21;44.58
75166;BME280;63747;48.042;10.088;2024-02-21T11:23:40;95528.75;;;11.24;44.75
75166;BME280;63747;48.042;10.088;2024-02-21T11:26:41;95526.28;;;11.22;44.17
75166;BME280;63747;48.042;10.088;2024-02-21T11:29:45;95510.00;;;11.33;44.88
75166;BME280;63747;48.042;10.088;2024-02-21T11:32:46;95498.69;;;11.48;44.81
75166;BME280;63747;48.042;10.088;2024-02-21T11:35:47;95497.16;;;11.53;43.91
75166;BME280;63747;48.042;10.088;2024-02-21T11:38:48;95487.84;;;11.57;44.95
75166;BME280;63747;48.042;10.088;2024-02-21T11:42:05;95483.53;;;11.56;43.44
75166;BME280;63747;48.042;10.088;2024-02-21T11:45:08;95479.69;;;11.59;44.32
75166;BME280;63747;48.042;10.088;2024-02-21T11:48:09;95477.41;;;11.56;43.61
75166;BME280;63747;48.042;10.088;2024-02-21T11:51:09;95473.41;;;11.60;43.29
75166;BME280;63747;48.042;10.088;2024-02-21T11:54:11;95461.94;;;11.67;43.67
75166;BME280;63747;48.042;10.088;2024-02-21T11:57:13;95460.28;;;11.58;43.02
75166;BME280;63747;48.042;10.088;2024-02-21T12:00:15;95453.34;;;11.57;43.83
75166;BME280;63747;48.042;10.088;2024-02-21T12:03:16;95449.94;;;11.71;43.89
75166;BME280;63747;48.042;10.088;2024-02-21T12:06:17;95446.59;;;11.78;43.79
75166;BME280;63747;48.042;10.088;2024-02-21T12:09:20;95439.88;;;11.90;44.08
75166;BME280;63747;48.042;10.088;2024-02-21T12:12:23;95427.13;;;11.85;42.77
75166;BME280;63747;48.042;10.088;2024-02-21T12:15:23;95421.16;;;11.83;43.22
75166;BME280;63747;48.042;10.088;2024-02-21T12:18:24;95415.63;;;11.93;43.63
75166;BME280;63747;48.042;10.088;2024-02-21T12:21:30;95407.75;;;11.77;41.65
75166;BME280;63747;48.042;10.088;2024-02-21T12:24:32;95407.56;;;11.55;41.31
75166;BME280;63747;48.042;10.088;2024-02-21T12:27:33;95407.25;;;11.50;41.68
75166;BME280;63747;48.042;10.088;2024-02-21T12:30:35;95397.28;;;11.52;41.67
75166;BME280;63747;48.042;10.088;2024-02-21T12:33:39;95394.28;;;11.55;42.08
75166;BME280;63747;48.042;10.088;2024-02-21T12:36:44;95393.53;;;11.38;41.94
75166;BME280;63747;48.042;10.088;2024-02-21T12:39:47;95390.50;;;11.50;42.15
75166;BME280;63747;48.042;10.088;2024-02-21T12:42:47;95385.63;;;11.61;42.26
75166;BME280;63747;48.042;10.088;2024-02-21T12:45:49;95376.88;;;11.76;41.90
75166;BME280;63747;48.042;10.088;2024-02-21T12:48:50;95372.34;;;11.84;42.15
75166;BME280;63747;48.042;10.088;2024-02-21T12:51:51;95360.91;;;11.84;42.57
75166;BME280;63747;48.042;10.088;2024-02-21T12:54:51;95360.91;;;11.84;42.12
75166;BME280;63747;48.042;10.088;2024-02-21T12:57:52;95347.47;;;12.08;42.49
75166;BME280;63747;48.042;10.088;2024-02-21T13:00:53;95327.06;;;12.23;41.63
75166;BME280;63747;48.042;10.088;2024-02-21T13:03:53;95321.84;;;12.30;41.81
75166;BME280;63747;48.042;10.088;2024-02-21T13:06:55;95326.16;;;12.46;41.72
75166;BME280;63747;48.042;10.088;2024-02-21T13:09:56;95309.22;;;12.62;41.79
75166;BME280;63747;48.042;10.088;2024-02-21T13:12:57;95301.13;;;12.85;40.76
75166;BME280;63747;48.042;10.088;2024-02-21T13:15:58;95290.13;;;12.88;40.60
75166;BME280;63747;48.042;10.088;2024-02-21T13:18:59;95287.84;;;12.85;39.90
75166;BME280;63747;48.042;10.088;2024-02-21T13:22:00;95288.03;;;12.68;39.64
75166;BME280;63747;48.042;10.088;2024-02-21T13:25:03;95277.22;;;12.70;39.39
75166;BME280;63747;48.042;10.088;2024-02-21T13:28:04;95271.81;;;12.63;39.58
75166;BME280;63747;48.042;10.088;2024-02-21T13:31:05;95259.44;;;12.41;39.42
75166;BME280;63747;48.042;10.088;2024-02-21T13:34:06;95257.50;;;12.35;39.46
75166;BME280;63747;48.042;10.088;2024-02-21T13:37:06;95256.78;;;12.56;40.29
75166;BME280;63747;48.042;10.088;2024-02-21T13:40:10;95252.09;;;12.58;39.60
75166;BME280;63747;48.042;10.088;2024-02-21T13:43:10;95250.06;;;12.60;39.90
75166;BME280;63747;48.042;10.088;2024-02-21T13:46:11;95246.13;;;12.70;39.42
75166;BME280;63747;48.042;10.088;2024-02-21T13:49:12;95236.31;;;12.71;39.45
75166;BME280;63747;48.042;10.088;2024-02-21T13:52:13;95232.75;;;12.64;39.57
75166;BME280;63747;48.042;10.088;2024-02-21T13:55:14;95228.34;;;12.56;39.56
75166;BME280;63747;48.042;10.088;2024-02-21T13:58:15;95219.56;;;12.56;39.40
75166;BME280;63747;48.042;10.088;2024-02-21T14:01:16;95221.19;;;12.57;39.10
75166;BME280;63747;48.042;10.088;2024-02-21T14:04:17;95210.94;;;12.24;36.79
75166;BME280;63747;48.042;10.088;2024-02-21T14:07:17;95209.38;;;12.00;37.87
75166;BME280;63747;48.042;10.088;2024-02-21T14:10:18;95209.16;;;11.87;37.34
75166;BME280;63747;48.042;10.088;2024-02-21T14:13:19;95207.31;;;11.73;37.91
75166;BME280;63747;48.042;10.088;2024-02-21T14:16:20;95205.91;;;11.62;37.63
75166;BME280;63747;48.042;10.088;2024-02-21T14:19:21;95191.09;;;11.67;38.55
75166;BME280;63747;48.042;10.088;2024-02-21T14:22:22;95190.19;;;11.75;38.33
75166;BME280;63747;48.042;10.088;2024-02-21T14:25:23;95184.56;;;11.70;38.49
75166;BME280;63747;48.042;10.088;2024-02-21T14:28:24;95165.81;;;11.71;40.10
75166;BME280;63747;48.042;10.088;2024-02-21T14:31:25;95167.53;;;11.79;39.84
75166;BME280;63747;48.042;10.088;2024-02-21T14:34:25;95173.22;;;11.76;39.66
75166;BME280;63747;48.042;10.088;2024-02-21T14:37:26;95176.00;;;11.45;39.55
75166;BME280;63747;48.042;10.088;2024-02-21T14:40:27;95168.78;;;11.39;40.15
75166;BME280;63747;48.042;10.088;2024-02-21T14:43:30;95162.47;;;11.40;40.30
75166;BME280;63747;48.042;10.088;2024-02-21T14:46:31;95164.00;;;11.34;40.14
75166;BME280;63747;48.042;10.088;2024-02-21T14:49:31;95167.09;;;11.38;40.69
75166;BME280;63747;48.042;10.088;2024-02-21T14:52:32;95159.22;;;11.30;40.59
75166;BME280;63747;48.042;10.088;2024-02-21T14:55:33;95161.00;;;11.14;40.03
75166;BME280;63747;48.042;10.088;2024-02-21T14:58:34;95160.06;;;11.07;41.45
75166;BME280;63747;48.042;10.088;2024-02-21T15:01:38;95153.94;;;11.07;40.85
75166;BME280;63747;48.042;10.088;2024-02-21T15:04:39;95150.66;;;11.05;41.27
75166;BME280;63747;48.042;10.088;2024-02-21T15:07:40;95143.34;;;11.07;40.43
75166;BME280;63747;48.042;10.088;2024-02-21T15:10:40;95147.00;;;11.06;41.06
75166;BME280;63747;48.042;10.088;2024-02-21T15:13:42;95146.41;;;10.96;41.95
75166;BME280;63747;48.042;10.088;2024-02-21T15:16:42;95151.41;;;10.91;41.54
75166;BME280;63747;48.042;10.088;2024-02-21T15:19:44;95148.63;;;10.84;41.00
75166;BME280;63747;48.042;10.088;2024-02-21T15:22:45;95150.06;;;10.72;41.01
75166;BME280;63747;48.042;10.088;2024-02-21T15:25:45;95148.59;;;10.61;40.98
75166;BME280;63747;48.042;10.088;2024-02-21T15:28:46;95142.81;;;10.57;41.75
75166;BME280;63747;48.042;10.088;2024-02-21T15:31:47;95127.75;;;10.58;41.70
75166;BME280;63747;48.042;10.088;2024-02-21T15:34:47;95129.25;;;10.52;41.46
75166;BME280;63747;48.042;10.088;2024-02-21T15:37:48;95124.16;;;10.51;42.01
75166;BME280;63747;48.042;10.088;2024-02-21T15:40:49;95120.63;;;10.50;42.36
75166;BME280;63747;48.042;10.088;2024-02-21T15:43:50;95112.53;;;10.52;42.30
75166;BME280;63747;48.042;10.088;2024-02-21T15:46:51;95110.53;;;10.54;42.39
75166;BME280;63747;48.042;10.088;2024-02-21T15:49:52;95111.03;;;10.57;42.49
75166;BME280;63747;48.042;10.088;2024-02-21T15:52:54;95106.94;;;10.47;42.48
75166;BME280;63747;48.042;10.088;2024-02-21T15:55:55;95109.81;;;10.37;42.66
75166;BME280;63747;48.042;10.088;2024-02-21T15:58:55;95100.25;;;10.28;42.88